createdAt,value
2018-10-19T04:00:53.895Z,8.62
2018-10-19T04:01:53.771Z,8.62
2018-10-19T04:03:47.006Z,8.68
2018-10-19T04:04:46.821Z,8.67
2018-10-19T04:06:39.508Z,8.62
2018-10-19T04:07:39.373Z,8.67
2018-10-19T04:09:32.053Z,8.74
2018-10-19T04:10:31.930Z,8.72
2018-10-19T04:12:24.634Z,8.71
2018-10-19T04:13:24.499Z,8.71
2018-10-19T04:15:17.250Z,8.79
2018-10-19T04:16:17.049Z,8.76
2018-10-19T04:18:09.728Z,8.82
2018-10-19T04:19:09.605Z,8.87
2018-10-19T04:21:02.341Z,8.85
2018-10-19T04:22:02.164Z,8.87
2018-10-19T04:23:54.831Z,8.85
2018-10-19T04:24:54.723Z,8.85
2018-10-19T04:26:47.415Z,8.83
2018-10-19T04:27:47.347Z,8.83
2018-10-19T04:29:39.952Z,8.86
2018-10-19T04:30:39.845Z,8.86
2018-10-19T04:32:32.532Z,8.85
2018-10-19T04:33:32.401Z,8.87
2018-10-19T04:35:25.080Z,8.85
2018-10-19T04:36:24.954Z,8.92
2018-10-19T04:38:17.623Z,8.80
2018-10-19T04:39:17.634Z,8.79
2018-10-19T04:41:10.308Z,8.76
2018-10-19T04:42:10.116Z,8.82
2018-10-19T04:44:02.725Z,8.72
2018-10-19T04:45:02.739Z,8.72
2018-10-19T04:46:55.314Z,8.60
2018-10-19T04:47:55.172Z,8.60
2018-10-19T04:49:47.854Z,8.58
2018-10-19T04:50:47.740Z,8.58
2018-10-19T04:52:40.422Z,8.53
2018-10-19T04:53:40.365Z,8.60
2018-10-19T04:55:32.979Z,8.61
2018-10-19T04:56:32.849Z,8.46
2018-10-19T04:58:26.035Z,8.47
2018-10-19T04:59:25.921Z,8.44
2018-10-19T05:01:18.611Z,8.49
2018-10-19T05:02:18.487Z,8.54
2018-10-19T05:04:11.156Z,8.54
2018-10-19T05:05:11.221Z,8.43
2018-10-19T05:07:03.718Z,8.46
2018-10-19T05:08:03.609Z,8.40
2018-10-19T05:09:56.416Z,8.43
2018-10-19T05:10:56.186Z,8.44
2018-10-19T05:12:48.901Z,8.31
2018-10-19T05:13:48.703Z,8.35
2018-10-19T05:15:41.378Z,8.32
2018-10-19T05:16:41.254Z,8.32
2018-10-19T05:18:33.922Z,8.31
2018-10-19T05:19:33.805Z,8.34
2018-10-19T05:21:26.496Z,8.25
2018-10-19T05:22:26.372Z,8.21
2018-10-19T05:24:19.031Z,8.22
2018-10-19T05:25:18.925Z,8.22
2018-10-19T05:27:11.607Z,8.14
2018-10-19T05:28:11.479Z,8.24
2018-10-19T05:30:04.149Z,8.21
2018-10-19T05:31:04.032Z,8.14
2018-10-19T05:32:56.742Z,8.13
2018-10-19T05:33:56.584Z,8.17
2018-10-19T05:35:49.267Z,8.06
2018-10-19T05:36:49.142Z,8.24
2018-10-19T05:38:41.807Z,8.22
2018-10-19T05:39:41.688Z,8.19
2018-10-19T05:41:34.375Z,8.21
2018-10-19T05:42:34.250Z,8.21
2018-10-19T05:44:26.916Z,8.21
2018-10-19T05:45:26.814Z,8.21
2018-10-19T05:47:19.479Z,8.24
2018-10-19T05:48:19.350Z,8.26
2018-10-19T05:50:12.073Z,8.26
2018-10-19T05:51:11.894Z,8.40
2018-10-19T05:53:04.668Z,8.26
2018-10-19T05:54:04.446Z,8.21
2018-10-19T05:55:57.187Z,8.28
2018-10-19T05:56:57.000Z,8.29
2018-10-19T05:58:49.668Z,8.26
2018-10-19T05:59:49.561Z,8.25
2018-10-19T06:01:42.246Z,8.25
2018-10-19T06:02:42.154Z,8.22
2018-10-19T06:04:34.785Z,8.26
2018-10-19T06:05:34.684Z,8.25
2018-10-19T06:07:27.359Z,8.24
2018-10-19T06:08:27.233Z,8.17
2018-10-19T06:10:19.896Z,8.22
2018-10-19T06:11:19.784Z,8.19
2018-10-19T06:13:12.460Z,8.14
2018-10-19T06:14:12.399Z,8.22
2018-10-19T06:16:05.023Z,8.21
2018-10-19T06:17:04.944Z,8.22
2018-10-19T06:18:57.554Z,8.25
2018-10-19T06:19:57.449Z,8.25
2018-10-19T06:21:50.116Z,8.22
2018-10-19T06:22:49.997Z,8.22
2018-10-19T06:24:42.668Z,8.29
2018-10-19T06:25:42.565Z,8.28
2018-10-19T06:27:35.243Z,8.31
2018-10-19T06:28:35.118Z,8.26
2018-10-19T06:30:27.791Z,8.31
2018-10-19T06:31:27.663Z,8.35
2018-10-19T06:33:20.333Z,8.29
2018-10-19T06:34:20.224Z,8.34
2018-10-19T06:36:12.906Z,8.31
2018-10-19T06:37:12.787Z,8.34
2018-10-19T06:39:05.440Z,8.39
2018-10-19T06:40:05.330Z,8.26
2018-10-19T06:41:58.008Z,8.31
2018-10-19T06:42:57.874Z,8.40
2018-10-19T06:44:50.541Z,8.39
2018-10-19T06:45:50.438Z,8.49
2018-10-19T06:47:43.120Z,8.49
2018-10-19T06:48:42.990Z,8.49
2018-10-19T06:50:35.721Z,8.58
2018-10-19T06:51:35.573Z,8.60
2018-10-19T06:53:28.225Z,8.67
2018-10-19T06:54:28.121Z,8.64
2018-10-19T06:56:20.800Z,8.68
2018-10-19T06:57:20.673Z,8.69
2018-10-19T06:59:13.394Z,8.79
2018-10-19T07:00:13.224Z,8.76
2018-10-19T07:02:05.940Z,8.83
2018-10-19T07:03:05.786Z,8.87
2018-10-19T07:04:58.475Z,8.80
2018-10-19T07:05:58.357Z,8.92
2018-10-19T07:07:51.081Z,8.90
2018-10-19T07:08:50.900Z,8.80
2018-10-19T07:10:43.584Z,8.87
2018-10-19T07:11:43.460Z,8.90
2018-10-19T07:13:36.125Z,8.90
2018-10-19T07:14:36.014Z,8.97
2018-10-19T07:16:28.701Z,8.92
2018-10-19T07:17:28.573Z,8.82
2018-10-19T07:19:21.238Z,8.95
2018-10-19T07:20:21.125Z,9.00
2018-10-19T07:22:13.807Z,9.08
2018-10-19T07:23:13.765Z,9.03
2018-10-19T07:25:06.348Z,9.11
2018-10-19T07:26:06.291Z,9.16
2018-10-19T07:27:58.929Z,9.12
2018-10-19T07:28:58.842Z,9.19
2018-10-19T07:30:51.478Z,9.19
2018-10-19T07:31:51.349Z,9.21
2018-10-19T07:33:44.025Z,9.16
2018-10-19T07:34:43.909Z,9.29
2018-10-19T07:36:36.591Z,9.35
2018-10-19T07:37:36.466Z,9.38
2018-10-19T07:39:29.131Z,9.34
2018-10-19T07:40:29.017Z,9.39
2018-10-19T07:42:21.954Z,9.45
2018-10-19T07:43:21.575Z,9.45
2018-10-19T07:45:14.242Z,9.47
2018-10-19T07:46:14.136Z,9.53
2018-10-19T07:48:07.034Z,9.57
2018-10-19T07:49:06.703Z,9.57
2018-10-19T07:50:59.387Z,9.70
2018-10-19T07:51:59.263Z,9.64
2018-10-19T07:53:51.935Z,9.74
2018-10-19T07:54:51.820Z,9.67
2018-10-19T07:56:44.500Z,9.64
2018-10-19T07:57:44.372Z,9.75
2018-10-19T07:59:37.044Z,9.77
2018-10-19T08:00:36.982Z,9.64
2018-10-19T08:02:29.618Z,9.64
2018-10-19T08:03:29.496Z,9.64
2018-10-19T08:05:22.155Z,9.63
2018-10-19T08:06:22.046Z,9.66
2018-10-19T08:08:14.756Z,9.67
2018-10-19T08:09:14.608Z,9.74
2018-10-19T08:11:07.353Z,9.81
2018-10-19T08:12:07.169Z,9.77
2018-10-19T08:13:59.898Z,9.84
2018-10-19T08:14:59.730Z,9.84
2018-10-19T08:16:52.450Z,9.92
2018-10-19T08:17:52.281Z,9.85
2018-10-19T08:19:44.946Z,9.93
2018-10-19T08:20:44.836Z,9.96
2018-10-19T08:22:37.517Z,10.07
2018-10-19T08:23:37.400Z,10.10
2018-10-19T08:25:30.067Z,10.21
2018-10-19T08:26:29.956Z,10.31
2018-10-19T08:28:22.634Z,10.36
2018-10-19T08:29:22.523Z,10.35
2018-10-19T08:31:15.187Z,10.47
2018-10-19T08:32:15.083Z,10.58
2018-10-19T08:34:07.766Z,10.67
2018-10-19T08:35:07.664Z,10.67
2018-10-19T08:37:00.323Z,10.76
2018-10-19T08:38:00.226Z,10.77
2018-10-19T08:39:52.865Z,10.66
2018-10-19T08:40:52.765Z,10.66
2018-10-19T08:42:45.450Z,10.70
2018-10-19T08:43:45.316Z,10.83
2018-10-19T08:45:37.986Z,10.79
2018-10-19T08:46:37.881Z,10.84
2018-10-19T08:48:30.569Z,11.00
2018-10-19T08:49:30.437Z,11.15
2018-10-19T08:51:23.107Z,11.20
2018-10-19T08:52:23.000Z,11.21
2018-10-19T08:54:15.689Z,11.26
2018-10-19T08:55:15.620Z,11.34
2018-10-19T08:57:08.312Z,11.34
2018-10-19T08:58:08.126Z,11.31
2018-10-19T09:00:00.843Z,11.24
2018-10-19T09:01:00.683Z,11.35
2018-10-19T09:02:53.420Z,11.41
2018-10-19T09:03:53.257Z,11.43
2018-10-19T09:05:45.918Z,11.46
2018-10-19T09:06:45.810Z,11.61
2018-10-19T09:08:38.503Z,11.71
2018-10-19T09:09:38.365Z,11.67
2018-10-19T09:11:31.064Z,11.76
2018-10-19T09:12:30.950Z,11.76
2018-10-19T09:14:23.617Z,11.88
2018-10-19T09:15:23.492Z,11.84
2018-10-19T09:17:16.414Z,11.88
2018-10-19T09:18:16.057Z,11.94
2018-10-19T09:20:08.742Z,12.11
2018-10-19T09:21:08.707Z,12.16
2018-10-19T09:23:01.372Z,12.20
2018-10-19T09:24:01.196Z,12.18
2018-10-19T09:25:53.865Z,12.23
2018-10-19T09:26:53.807Z,12.31
2018-10-19T09:28:46.447Z,12.59
2018-10-19T09:29:46.321Z,12.59
2018-10-19T09:31:38.992Z,12.69
2018-10-19T09:32:38.890Z,12.70
2018-10-19T09:34:31.572Z,12.66
2018-10-19T09:35:31.525Z,12.77
2018-10-19T09:37:24.137Z,12.86
2018-10-19T09:38:24.026Z,12.86
2018-10-19T09:40:16.705Z,13.01
2018-10-19T09:41:16.633Z,13.06
2018-10-19T09:43:09.292Z,13.19
2018-10-19T09:44:09.125Z,13.20
2018-10-19T09:46:01.807Z,13.21
2018-10-19T09:47:01.748Z,13.20
2018-10-19T09:48:54.423Z,13.25
2018-10-19T09:49:54.264Z,13.25
2018-10-19T09:51:46.939Z,13.37
2018-10-19T09:52:46.832Z,13.37
2018-10-19T09:54:39.526Z,13.45
2018-10-19T09:55:39.395Z,13.44
2018-10-19T09:57:32.079Z,13.51
2018-10-19T09:58:31.956Z,13.55
2018-10-19T10:00:24.624Z,13.58
2018-10-19T10:01:24.521Z,13.65
2018-10-19T10:03:17.363Z,13.53
2018-10-19T10:04:17.080Z,13.60
2018-10-19T10:06:09.761Z,13.48
2018-10-19T10:07:09.733Z,13.57
2018-10-19T10:09:02.350Z,13.50
2018-10-19T10:10:02.219Z,13.40
2018-10-19T10:11:54.880Z,13.58
2018-10-19T10:12:54.820Z,13.50
2018-10-19T10:14:47.472Z,13.57
2018-10-19T10:15:47.360Z,13.63
2018-10-19T10:17:40.018Z,13.76
2018-10-19T10:18:39.894Z,13.81
2018-10-19T10:20:32.575Z,13.73
2018-10-19T10:21:32.467Z,13.66
2018-10-19T10:23:25.151Z,13.79
2018-10-19T10:24:25.029Z,13.83
2018-10-19T10:26:17.710Z,13.78
2018-10-19T10:27:17.596Z,13.86
2018-10-19T10:29:10.782Z,13.90
2018-10-19T10:30:10.656Z,13.93
2018-10-19T10:32:03.339Z,13.97
2018-10-19T10:33:03.209Z,13.94
2018-10-19T10:34:56.395Z,14.02
2018-10-19T10:35:56.266Z,14.11
2018-10-19T10:37:48.958Z,14.16
2018-10-19T10:38:48.872Z,14.16
2018-10-19T10:40:41.513Z,14.06
2018-10-19T10:41:41.408Z,14.06
2018-10-19T10:43:34.100Z,14.09
2018-10-19T10:44:33.973Z,14.20
2018-10-19T10:46:26.646Z,14.16
2018-10-19T10:47:26.536Z,14.28
2018-10-19T10:49:19.225Z,14.34
2018-10-19T10:50:19.098Z,14.44
2018-10-19T10:52:11.841Z,14.66
2018-10-19T10:53:11.677Z,14.63
2018-10-19T10:55:04.411Z,14.71
2018-10-19T10:56:04.251Z,14.74
2018-10-19T10:57:57.051Z,14.83
2018-10-19T10:58:56.806Z,14.85
2018-10-19T11:00:49.484Z,14.57
2018-10-19T11:01:49.376Z,14.63
2018-10-19T11:03:42.074Z,14.67
2018-10-19T11:04:41.947Z,14.83
2018-10-19T11:06:34.630Z,14.93
2018-10-19T11:07:34.682Z,14.94
2018-10-19T11:09:27.210Z,14.95
2018-10-19T11:10:27.093Z,14.98
2018-10-19T11:12:19.776Z,15.23
2018-10-19T11:13:19.654Z,15.37
2018-10-19T11:15:12.329Z,15.56
2018-10-19T11:16:12.274Z,15.70
2018-10-19T11:18:04.918Z,15.86
2018-10-19T11:19:04.832Z,15.78
2018-10-19T11:20:57.474Z,15.88
2018-10-19T11:21:57.401Z,15.88
2018-10-19T11:23:50.096Z,16.00
2018-10-19T11:24:49.945Z,16.06
2018-10-19T11:26:42.616Z,16.22
2018-10-19T11:27:42.511Z,16.30
2018-10-19T11:29:35.218Z,16.44
2018-10-19T11:30:35.123Z,16.55
2018-10-19T11:32:27.785Z,16.51
2018-10-19T11:33:27.682Z,16.57
2018-10-19T11:35:20.338Z,16.70
2018-10-19T11:36:20.236Z,16.57
2018-10-19T11:38:12.930Z,16.49
2018-10-19T11:39:12.809Z,16.51
2018-10-19T11:41:05.480Z,16.37
2018-10-19T11:42:05.381Z,16.36
2018-10-19T11:43:58.073Z,16.37
2018-10-19T11:44:57.952Z,16.39
2018-10-19T11:46:50.637Z,16.36
2018-10-19T11:47:50.530Z,16.47
2018-10-19T11:49:43.237Z,16.47
2018-10-19T11:50:43.111Z,16.55
2018-10-19T11:52:35.804Z,16.42
2018-10-19T11:53:35.682Z,16.30
2018-10-19T11:55:28.374Z,16.26
2018-10-19T11:56:28.266Z,16.17
2018-10-19T11:58:20.971Z,16.37
2018-10-19T11:59:20.833Z,16.16
2018-10-19T12:01:13.574Z,16.16
2018-10-19T12:02:13.427Z,16.17
2018-10-19T12:04:06.148Z,16.32
2018-10-19T12:05:05.982Z,16.34
2018-10-19T12:06:58.674Z,16.32
2018-10-19T12:07:58.545Z,16.42
2018-10-19T12:09:51.273Z,16.51
2018-10-19T12:10:51.235Z,16.65
2018-10-19T12:12:43.849Z,16.57
2018-10-19T12:13:43.720Z,16.72
2018-10-19T12:15:36.404Z,16.67
2018-10-19T12:16:36.327Z,16.58
2018-10-19T12:18:28.987Z,16.74
2018-10-19T12:19:28.868Z,16.70
2018-10-19T12:21:21.559Z,16.58
2018-10-19T12:22:21.448Z,16.65
2018-10-19T12:24:14.139Z,16.70
2018-10-19T12:25:14.043Z,16.72
2018-10-19T12:27:06.798Z,16.76
2018-10-19T12:28:06.596Z,16.87
2018-10-19T12:29:59.286Z,16.82
2018-10-19T12:30:59.182Z,16.84
2018-10-19T12:32:51.861Z,16.88
2018-10-19T12:33:51.737Z,16.87
2018-10-19T12:35:44.428Z,17.06
2018-10-19T12:36:44.314Z,17.07
2018-10-19T12:38:37.016Z,17.13
2018-10-19T12:39:36.892Z,17.22
2018-10-19T12:41:29.574Z,17.31
2018-10-19T12:42:29.478Z,17.35
2018-10-19T12:44:22.166Z,17.32
2018-10-19T12:45:22.050Z,17.45
2018-10-19T12:47:14.781Z,17.54
2018-10-19T12:48:14.619Z,17.62
2018-10-19T12:50:07.327Z,17.54
2018-10-19T12:51:07.263Z,17.66
2018-10-19T12:52:59.889Z,17.43
2018-10-19T12:53:59.828Z,17.31
2018-10-19T12:55:52.484Z,17.25
2018-10-19T12:56:52.379Z,17.15
2018-10-19T12:58:45.069Z,17.02
2018-10-19T12:59:44.957Z,17.15
2018-10-19T13:01:37.629Z,17.35
2018-10-19T13:02:37.510Z,17.38
2018-10-19T13:04:30.220Z,17.10
2018-10-19T13:05:30.098Z,16.90
2018-10-19T13:07:22.777Z,16.70
2018-10-19T13:08:22.683Z,16.70
2018-10-19T13:10:15.372Z,16.92
2018-10-19T13:11:15.249Z,16.88
2018-10-19T13:13:08.510Z,16.90
2018-10-19T13:14:08.310Z,16.92
2018-10-19T13:16:01.021Z,17.02
2018-10-19T13:17:00.891Z,16.91
2018-10-19T13:18:53.585Z,17.00
2018-10-19T13:19:53.470Z,16.91
2018-10-19T13:21:46.317Z,16.91
2018-10-19T13:22:46.042Z,16.73
2018-10-19T13:24:38.735Z,16.66
2018-10-19T13:25:38.622Z,16.52
2018-10-19T13:27:31.293Z,16.48
2018-10-19T13:28:31.183Z,16.49
2018-10-19T13:30:23.885Z,16.62
2018-10-19T13:31:23.756Z,16.63
2018-10-19T13:33:16.428Z,16.65
2018-10-19T13:34:16.342Z,16.67
2018-10-19T13:36:09.596Z,16.63
2018-10-19T13:37:09.388Z,16.69
2018-10-19T13:39:02.111Z,16.65
2018-10-19T13:40:01.957Z,16.52
2018-10-19T13:41:54.661Z,16.40
2018-10-19T13:42:54.525Z,16.40
2018-10-19T13:44:47.219Z,16.29
2018-10-19T13:45:47.124Z,16.27
2018-10-19T13:47:39.775Z,16.26
2018-10-19T13:48:39.662Z,16.14
2018-10-19T13:50:32.357Z,16.29
2018-10-19T13:51:32.244Z,16.27
2018-10-19T13:53:25.421Z,16.40
2018-10-19T13:54:25.307Z,16.45
2018-10-19T13:56:18.010Z,16.62
2018-10-19T13:57:17.895Z,16.72
2018-10-19T13:59:10.637Z,16.54
2018-10-19T14:00:10.464Z,16.54
2018-10-19T14:02:03.156Z,16.37
2018-10-19T14:03:03.093Z,16.29
2018-10-19T14:04:55.801Z,16.14
2018-10-19T14:05:55.607Z,16.22
2018-10-19T14:07:48.282Z,16.18
2018-10-19T14:08:48.168Z,16.29
2018-10-19T14:10:40.867Z,16.30
2018-10-19T14:11:40.741Z,16.26
2018-10-19T14:13:33.410Z,16.29
2018-10-19T14:14:33.302Z,16.34
2018-10-19T14:16:25.993Z,16.42
2018-10-19T14:17:25.876Z,16.49
2018-10-19T14:19:18.658Z,16.55
2018-10-19T14:20:18.444Z,16.58
2018-10-19T14:22:11.116Z,16.65
2018-10-19T14:23:11.060Z,16.57
2018-10-19T14:25:03.710Z,16.69
2018-10-19T14:26:03.582Z,16.74
2018-10-19T14:27:56.261Z,16.81
2018-10-19T14:28:56.214Z,16.69
2018-10-19T14:30:48.857Z,16.91
2018-10-19T14:31:48.730Z,16.94
2018-10-19T14:33:41.477Z,16.87
2018-10-19T14:34:41.303Z,16.92
2018-10-19T14:36:33.993Z,16.92
2018-10-19T14:37:33.873Z,16.92
2018-10-19T14:39:26.565Z,17.02
2018-10-19T14:40:26.448Z,17.05
2018-10-19T14:42:19.122Z,16.77
2018-10-19T14:43:19.012Z,16.63
2018-10-19T14:45:11.761Z,16.47
2018-10-19T14:46:11.580Z,16.42
2018-10-19T14:48:04.283Z,16.29
2018-10-19T14:49:04.167Z,16.16
2018-10-19T14:50:56.937Z,16.17
2018-10-19T14:51:56.735Z,16.08
2018-10-19T14:53:49.417Z,16.07
2018-10-19T14:54:49.312Z,15.98
2018-10-19T14:56:42.015Z,15.84
2018-10-19T14:57:41.885Z,15.84
2018-10-19T14:59:34.578Z,15.81
2018-10-19T15:00:34.454Z,15.74
2018-10-19T15:02:27.137Z,15.63
2018-10-19T15:03:27.027Z,15.53
2018-10-19T15:05:19.719Z,15.51
2018-10-19T15:06:19.592Z,15.47
2018-10-19T15:08:12.265Z,15.51
2018-10-19T15:09:12.232Z,15.51
2018-10-19T15:11:05.008Z,15.34
2018-10-19T15:12:04.815Z,15.44
2018-10-19T15:13:57.405Z,15.51
2018-10-19T15:14:57.318Z,15.53
2018-10-19T15:16:50.000Z,15.45
2018-10-19T15:17:49.869Z,15.55
2018-10-19T15:19:42.559Z,15.52
2018-10-19T15:20:42.435Z,15.47
2018-10-19T15:22:35.113Z,15.47
2018-10-19T15:23:35.003Z,15.45
2018-10-19T15:25:27.699Z,15.47
2018-10-19T15:26:27.591Z,15.49
2018-10-19T15:28:20.267Z,15.35
2018-10-19T15:29:20.166Z,15.47
2018-10-19T15:31:12.837Z,15.34
2018-10-19T15:32:12.717Z,15.44
2018-10-19T15:34:05.388Z,15.31
2018-10-19T15:35:05.284Z,15.26
2018-10-19T15:36:57.969Z,15.34
2018-10-19T15:37:57.849Z,15.35
2018-10-19T15:39:50.532Z,15.35
2018-10-19T15:40:50.414Z,15.34
2018-10-19T15:42:43.086Z,15.35
2018-10-19T15:43:42.977Z,15.40
2018-10-19T15:45:35.671Z,15.22
2018-10-19T15:46:35.562Z,15.20
2018-10-19T15:48:28.278Z,15.23
2018-10-19T15:49:28.109Z,15.26
2018-10-19T15:51:20.812Z,15.30
2018-10-19T15:52:20.683Z,15.23
2018-10-19T15:54:13.451Z,15.25
2018-10-19T15:55:13.250Z,15.27
2018-10-19T15:57:06.077Z,15.33
2018-10-19T15:58:05.822Z,15.33
2018-10-19T15:59:58.558Z,15.27
2018-10-19T16:00:58.387Z,15.25
2018-10-19T16:02:51.059Z,15.19
2018-10-19T16:03:50.961Z,15.13
2018-10-19T16:05:43.651Z,15.05
2018-10-19T16:06:43.530Z,14.98
2018-10-19T16:08:36.207Z,14.98
2018-10-19T16:09:36.096Z,14.95
2018-10-19T16:11:28.784Z,14.77
2018-10-19T16:12:28.661Z,14.75
2018-10-19T16:14:21.329Z,14.71
2018-10-19T16:15:21.226Z,14.63
2018-10-19T16:17:13.920Z,14.59
2018-10-19T16:18:13.877Z,14.52
2018-10-19T16:20:06.490Z,14.46
2018-10-19T16:21:06.388Z,14.49
2018-10-19T16:22:59.042Z,14.38
2018-10-19T16:23:58.946Z,14.36
2018-10-19T16:25:51.620Z,14.33
2018-10-19T16:26:51.505Z,14.33
2018-10-19T16:28:44.172Z,14.20
2018-10-19T16:29:44.056Z,14.20
2018-10-19T16:31:36.756Z,14.16
2018-10-19T16:32:36.635Z,14.09
2018-10-19T16:34:29.301Z,14.02
2018-10-19T16:35:29.192Z,13.99
2018-10-19T16:37:21.876Z,13.94
2018-10-19T16:38:21.750Z,13.90
2018-10-19T16:40:14.441Z,13.83
2018-10-19T16:41:14.312Z,13.83
2018-10-19T16:43:06.976Z,13.75
2018-10-19T16:44:06.873Z,13.69
2018-10-19T16:45:59.557Z,13.62
2018-10-19T16:46:59.434Z,13.65
2018-10-19T16:48:52.108Z,13.60
2018-10-19T16:49:51.998Z,13.60
2018-10-19T16:51:44.694Z,13.53
2018-10-19T16:52:44.606Z,13.44
2018-10-19T16:54:37.239Z,13.51
2018-10-19T16:55:37.129Z,13.40
2018-10-19T16:57:29.812Z,13.39
2018-10-19T16:58:29.699Z,13.40
2018-10-19T17:00:22.378Z,13.31
2018-10-19T17:01:22.248Z,13.32
2018-10-19T17:03:14.966Z,13.28
2018-10-19T17:04:14.968Z,13.21
2018-10-19T17:06:07.557Z,13.20
2018-10-19T17:07:07.395Z,13.19
2018-10-19T17:09:00.092Z,13.10
2018-10-19T17:09:59.962Z,13.01
2018-10-19T17:11:52.816Z,12.98
2018-10-19T17:12:52.635Z,13.01
2018-10-19T17:14:45.186Z,12.98
2018-10-19T17:15:45.097Z,12.91
2018-10-19T17:17:37.775Z,12.91
2018-10-19T17:18:37.646Z,12.84
2018-10-19T17:20:30.346Z,12.86
2018-10-19T17:21:30.291Z,12.83
2018-10-19T17:23:22.895Z,12.86
2018-10-19T17:24:22.852Z,12.76
2018-10-19T17:26:15.469Z,12.73
2018-10-19T17:27:15.425Z,12.73
2018-10-19T17:29:08.043Z,12.71
2018-10-19T17:30:07.983Z,12.77
2018-10-19T17:32:00.761Z,12.65
2018-10-19T17:33:00.521Z,12.65
2018-10-19T17:34:53.181Z,12.62
2018-10-19T17:35:53.047Z,12.56
2018-10-19T17:37:45.713Z,12.56
2018-10-19T17:38:45.600Z,12.48
2018-10-19T17:40:38.273Z,12.53
2018-10-19T17:41:38.145Z,12.44
2018-10-19T17:43:30.882Z,12.51
2018-10-19T17:44:30.718Z,12.36
2018-10-19T17:46:23.397Z,12.34
2018-10-19T17:47:23.263Z,12.26
2018-10-19T17:49:16.115Z,12.33
2018-10-19T17:50:15.832Z,12.22
2018-10-19T17:52:08.516Z,12.20
2018-10-19T17:53:08.440Z,12.19
2018-10-19T17:55:01.085Z,12.25
2018-10-19T17:56:00.959Z,12.19
2018-10-19T17:57:53.627Z,12.08
2018-10-19T17:58:53.567Z,12.01
2018-10-19T18:00:46.218Z,12.01
2018-10-19T18:01:46.077Z,12.03
2018-10-19T18:03:38.745Z,11.88
2018-10-19T18:04:38.668Z,11.79
2018-10-19T18:06:31.333Z,11.82
2018-10-19T18:07:31.201Z,11.88
2018-10-19T18:09:23.888Z,11.78
2018-10-19T18:10:23.781Z,11.82
2018-10-19T18:12:16.465Z,11.78
2018-10-19T18:13:16.341Z,11.79
2018-10-19T18:15:09.053Z,11.63
2018-10-19T18:16:08.993Z,11.71
2018-10-19T18:18:01.565Z,11.76
2018-10-19T18:19:01.463Z,11.71
2018-10-19T18:20:54.159Z,11.73
2018-10-19T18:21:54.251Z,11.73
2018-10-19T18:23:46.820Z,11.63
2018-10-19T18:24:46.578Z,11.73
2018-10-19T18:26:39.266Z,11.64
2018-10-19T18:27:39.135Z,11.63
2018-10-19T18:29:32.299Z,11.68
2018-10-19T18:30:32.185Z,11.67
2018-10-19T18:32:24.870Z,11.51
2018-10-19T18:33:24.741Z,11.56
2018-10-19T18:35:17.467Z,11.49
2018-10-19T18:36:17.309Z,11.45
2018-10-19T18:38:10.030Z,11.48
2018-10-19T18:39:09.880Z,11.51
2018-10-19T18:41:02.586Z,11.46
2018-10-19T18:42:02.440Z,11.41
2018-10-19T18:43:55.161Z,11.31
2018-10-19T18:44:54.997Z,11.34
2018-10-19T18:46:47.838Z,11.31
2018-10-19T18:47:47.600Z,11.33
2018-10-19T18:49:40.268Z,11.31
2018-10-19T18:50:40.186Z,11.34
2018-10-19T18:52:32.845Z,11.20
2018-10-19T18:53:32.708Z,11.34
2018-10-19T18:55:25.396Z,11.34
2018-10-19T18:56:25.268Z,11.28
2018-10-19T18:58:17.920Z,11.34
2018-10-19T18:59:17.820Z,11.30
2018-10-19T19:01:10.504Z,11.23
2018-10-19T19:02:10.456Z,11.27
2018-10-19T19:04:03.045Z,11.31
2018-10-19T19:05:02.995Z,11.24
2018-10-19T19:06:55.617Z,11.15
2018-10-19T19:07:55.506Z,11.18
2018-10-19T19:09:48.154Z,11.24
2018-10-19T19:10:48.052Z,11.20
2018-10-19T19:12:40.738Z,11.18
2018-10-19T19:13:40.612Z,11.18
2018-10-19T19:15:33.296Z,11.15
2018-10-19T19:16:33.202Z,11.16
2018-10-19T19:18:25.838Z,11.09
2018-10-19T19:19:25.753Z,11.12
2018-10-19T19:21:18.421Z,10.95
2018-10-19T19:22:18.294Z,11.05
2018-10-19T19:24:10.963Z,10.90
2018-10-19T19:25:10.852Z,10.95
2018-10-19T19:27:03.529Z,10.77
2018-10-19T19:28:03.413Z,10.83
2018-10-19T19:29:56.098Z,10.87
2018-10-19T19:30:55.975Z,10.80
2018-10-19T19:32:48.654Z,10.79
2018-10-19T19:33:48.533Z,10.83
2018-10-19T19:35:41.216Z,10.84
2018-10-19T19:36:41.092Z,10.88
2018-10-19T19:38:33.853Z,10.65
2018-10-19T19:39:33.715Z,10.69
2018-10-19T19:41:26.409Z,10.69
2018-10-19T19:42:26.270Z,10.76
2018-10-19T19:44:18.936Z,10.65
2018-10-19T19:45:18.823Z,10.61
2018-10-19T19:47:11.578Z,10.54
2018-10-19T19:48:11.387Z,10.55
2018-10-19T19:50:04.120Z,10.55
2018-10-19T19:51:03.942Z,10.44
2018-10-19T19:52:56.675Z,10.49
2018-10-19T19:53:56.523Z,10.47
2018-10-19T19:55:49.180Z,10.41
2018-10-19T19:56:49.054Z,10.32
2018-10-19T19:58:41.723Z,10.33
2018-10-19T19:59:41.610Z,10.36
2018-10-19T20:01:34.297Z,10.39
2018-10-19T20:02:34.168Z,10.44
2018-10-19T20:04:26.836Z,10.38
2018-10-19T20:05:26.729Z,10.36
2018-10-19T20:07:19.413Z,10.35
2018-10-19T20:08:19.338Z,10.32
2018-10-19T20:10:11.951Z,10.21
2018-10-19T20:11:11.902Z,10.26
2018-10-19T20:13:04.530Z,10.13
2018-10-19T20:14:04.419Z,10.11
2018-10-19T20:15:57.088Z,10.10
2018-10-19T20:16:56.966Z,10.00
2018-10-19T20:18:50.151Z,10.10
2018-10-19T20:19:50.046Z,10.02
2018-10-19T20:21:42.727Z,10.05
2018-10-19T20:22:42.602Z,9.98
2018-10-19T20:24:35.758Z,9.99
2018-10-19T20:25:35.654Z,10.03
2018-10-19T20:27:28.333Z,10.00
2018-10-19T20:28:28.209Z,9.93
2018-10-19T20:30:21.358Z,9.88
2018-10-19T20:31:21.249Z,9.89
2018-10-19T20:33:13.954Z,9.82
2018-10-19T20:34:13.802Z,9.78
2018-10-19T20:36:06.489Z,9.80
2018-10-19T20:37:06.366Z,9.84
2018-10-19T20:38:59.039Z,9.81
2018-10-19T20:39:58.920Z,9.75
2018-10-19T20:41:51.608Z,9.72
2018-10-19T20:42:51.484Z,9.72
2018-10-19T20:44:44.148Z,9.74
2018-10-19T20:45:44.041Z,9.67
2018-10-19T20:47:36.725Z,9.62
2018-10-19T20:48:36.596Z,9.63
2018-10-19T20:50:29.263Z,9.63
2018-10-19T20:51:29.153Z,9.64
2018-10-19T20:53:21.840Z,9.59
2018-10-19T20:54:21.712Z,9.71
2018-10-19T20:56:14.453Z,9.57
2018-10-19T20:57:14.259Z,9.55
2018-10-19T20:59:07.450Z,9.55
2018-10-19T21:00:07.316Z,9.56
2018-10-19T21:02:00.051Z,9.56
2018-10-19T21:02:59.882Z,9.60
2018-10-19T21:04:52.550Z,9.56
2018-10-19T21:05:52.437Z,9.53
2018-10-19T21:07:45.132Z,9.64
2018-10-19T21:08:44.994Z,9.66
2018-10-19T21:10:37.666Z,9.72
2018-10-19T21:11:37.556Z,9.64
2018-10-19T21:13:30.323Z,9.72
2018-10-19T21:14:30.118Z,9.64
2018-10-19T21:16:22.798Z,9.74
2018-10-19T21:17:22.670Z,9.64
2018-10-19T21:19:15.381Z,9.67
2018-10-19T21:20:15.296Z,9.57
2018-10-19T21:22:08.412Z,9.62
2018-10-19T21:23:08.338Z,9.62
2018-10-19T21:25:00.948Z,9.52
2018-10-19T21:26:00.888Z,9.56
2018-10-19T21:27:53.521Z,9.47
2018-10-19T21:28:53.392Z,9.52
2018-10-19T21:30:46.063Z,9.42
2018-10-19T21:31:45.949Z,9.44
2018-10-19T21:33:38.630Z,9.48
2018-10-19T21:34:38.504Z,9.41
2018-10-19T21:36:31.194Z,9.41
2018-10-19T21:37:31.066Z,9.39
2018-10-19T21:39:23.727Z,9.41
2018-10-19T21:40:23.617Z,9.39
2018-10-19T21:42:16.313Z,9.35
2018-10-19T21:43:16.175Z,9.34
2018-10-19T21:45:08.837Z,9.21
2018-10-19T21:46:08.739Z,9.14
2018-10-19T21:48:01.411Z,9.21
2018-10-19T21:49:01.286Z,9.19
2018-10-19T21:50:53.953Z,9.21
2018-10-19T21:51:53.843Z,9.14
2018-10-19T21:53:46.524Z,9.26
2018-10-19T21:54:46.409Z,9.23
2018-10-19T21:56:39.070Z,9.09
2018-10-19T21:57:38.939Z,9.19
2018-10-19T21:59:31.630Z,9.08
